Fulham, United Kingdom
Current Conditions -  °F | °C
As of 10:50 AM on Wednesday 26 Nov 2014 (Local Time) from EGWU Reporting Station
Haze Haze  
Wind Chill:   Ceiling: 400
Heat Index:   Visibility: 1.5mi
Dew Point:   Wind: 2mph
Humidity: 93%   Direction: 50°NE
Pressure: 29.85"   Gusts: NA
Location:  51.48°N, 0.2°W
Report Text: EGWU 261050Z 05002KT 2500 BR SCT002 OVC004 09/08 Q1011 TEMPO 2000 -DZ SCT001
Loading
Personal Weather Stations






























Interactive Weather Map New forecast layout! Learn more

10-Day Weather Forecast

Advertisements
Track Severe Weather on mobile